sensor_id;sensor_type;location;lat;lon;timestamp;pressure;altitude;pressure_sealevel;temperature;humidity
78313;BME280;67568;47.438;21.408;2023-06-26T00:00:16;100419.28;;;19.29;72.66
78313;BME280;67568;47.438;21.408;2023-06-26T00:02:43;100428.25;;;19.35;72.24
78313;BME280;67568;47.438;21.408;2023-06-26T00:05:09;100426.63;;;19.34;72.72
78313;BME280;67568;47.438;21.408;2023-06-26T00:07:36;100420.69;;;19.36;72.86
78313;BME280;67568;47.438;21.408;2023-06-26T00:10:04;100421.75;;;19.31;72.63
78313;BME280;67568;47.438;21.408;2023-06-26T00:12:31;100422.09;;;19.29;72.92
78313;BME280;67568;47.438;21.408;2023-06-26T00:14:58;100416.53;;;19.17;73.22
78313;BME280;67568;47.438;21.408;2023-06-26T00:17:25;100426.63;;;19.18;72.58
78313;BME280;67568;47.438;21.408;2023-06-26T00:19:53;100410.47;;;19.15;72.64
78313;BME280;67568;47.438;21.408;2023-06-26T00:22:21;100434.13;;;19.14;72.52
78313;BME280;67568;47.438;21.408;2023-06-26T00:24:48;100423.66;;;19.27;71.92
78313;BME280;67568;47.438;21.408;2023-06-26T00:27:14;100422.09;;;19.29;72.70
78313;BME280;67568;47.438;21.408;2023-06-26T00:29:41;100428.19;;;19.31;71.87
78313;BME280;67568;47.438;21.408;2023-06-26T00:32:08;100423.75;;;19.30;71.98
78313;BME280;67568;47.438;21.408;2023-06-26T00:34:35;100421.34;;;19.17;72.30
78313;BME280;67568;47.438;21.408;2023-06-26T00:37:01;100421.53;;;19.24;72.83
78313;BME280;67568;47.438;21.408;2023-06-26T00:39:28;100414.66;;;19.21;72.55
78313;BME280;67568;47.438;21.408;2023-06-26T00:41:55;100409.56;;;19.11;73.63
78313;BME280;67568;47.438;21.408;2023-06-26T00:44:22;100419.16;;;19.10;74.23
78313;BME280;67568;47.438;21.408;2023-06-26T00:46:49;100416.38;;;19.10;73.45
78313;BME280;67568;47.438;21.408;2023-06-26T00:49:15;100410.75;;;19.10;73.63
78313;BME280;67568;47.438;21.408;2023-06-26T00:51:43;100407.38;;;19.04;74.67
78313;BME280;67568;47.438;21.408;2023-06-26T00:54:10;100413.34;;;19.03;74.58
78313;BME280;67568;47.438;21.408;2023-06-26T00:56:37;100408.44;;;19.00;73.89
78313;BME280;67568;47.438;21.408;2023-06-26T00:59:04;100415.25;;;18.99;74.24
78313;BME280;67568;47.438;21.408;2023-06-26T01:01:34;100410.69;;;18.94;74.83
78313;BME280;67568;47.438;21.408;2023-06-26T01:04:01;100404.97;;;18.91;74.22
78313;BME280;67568;47.438;21.408;2023-06-26T01:06:28;100399.84;;;18.80;75.20
78313;BME280;67568;47.438;21.408;2023-06-26T01:08:56;100399.38;;;18.78;74.95
78313;BME280;67568;47.438;21.408;2023-06-26T01:11:23;100408.03;;;18.85;74.56
78313;BME280;67568;47.438;21.408;2023-06-26T01:13:51;100405.56;;;18.84;75.52
78313;BME280;67568;47.438;21.408;2023-06-26T01:16:18;100405.47;;;18.80;75.35
78313;BME280;67568;47.438;21.408;2023-06-26T01:18:45;100401.28;;;18.74;74.82
78313;BME280;67568;47.438;21.408;2023-06-26T01:21:13;100408.28;;;18.80;75.68
78313;BME280;67568;47.438;21.408;2023-06-26T01:24:04;100408.66;;;18.79;75.75
78313;BME280;67568;47.438;21.408;2023-06-26T01:26:34;100405.47;;;18.80;75.83
78313;BME280;67568;47.438;21.408;2023-06-26T01:29:03;100408.28;;;18.80;75.17
78313;BME280;67568;47.438;21.408;2023-06-26T01:31:31;100412.28;;;18.79;75.27
78313;BME280;67568;47.438;21.408;2023-06-26T01:33:58;100397.97;;;18.72;75.82
78313;BME280;67568;47.438;21.408;2023-06-26T01:36:26;100403.59;;;18.72;76.44
78313;BME280;67568;47.438;21.408;2023-06-26T01:38:53;100401.41;;;18.65;76.15
78313;BME280;67568;47.438;21.408;2023-06-26T01:41:20;100406.44;;;18.60;76.15
78313;BME280;67568;47.438;21.408;2023-06-26T01:46:22;100400.72;;;18.56;76.56
78313;BME280;67568;47.438;21.408;2023-06-26T01:48:57;100404.13;;;18.62;76.71
78313;BME280;67568;47.438;21.408;2023-06-26T01:51:30;100398.97;;;18.52;77.05
78313;BME280;67568;47.438;21.408;2023-06-26T01:53:59;100393.38;;;18.52;77.20
78313;BME280;67568;47.438;21.408;2023-06-26T01:56:28;100393.16;;;18.45;76.64
78313;BME280;67568;47.438;21.408;2023-06-26T01:58:56;100389.28;;;18.49;77.47
78313;BME280;67568;47.438;21.408;2023-06-26T02:01:24;100383.22;;;18.47;76.54
78313;BME280;67568;47.438;21.408;2023-06-26T02:03:52;100388.47;;;18.49;77.04
78313;BME280;67568;47.438;21.408;2023-06-26T02:06:19;100379.59;;;18.47;76.66
78313;BME280;67568;47.438;21.408;2023-06-26T02:08:46;100390.47;;;18.48;77.18
78313;BME280;67568;47.438;21.408;2023-06-26T02:11:12;100389.19;;;18.46;76.56
78313;BME280;67568;47.438;21.408;2023-06-26T02:13:39;100386.38;;;18.46;76.75
78313;BME280;67568;47.438;21.408;2023-06-26T02:16:06;100377.63;;;18.47;76.85
78313;BME280;67568;47.438;21.408;2023-06-26T02:18:33;100388.63;;;18.40;76.96
78313;BME280;67568;47.438;21.408;2023-06-26T02:20:59;100380.19;;;18.40;76.81
78313;BME280;67568;47.438;21.408;2023-06-26T02:23:28;100394.78;;;18.46;76.48
78313;BME280;67568;47.438;21.408;2023-06-26T02:25:55;100391.50;;;18.43;76.82
78313;BME280;67568;47.438;21.408;2023-06-26T02:28:22;100396.78;;;18.45;77.04
78313;BME280;67568;47.438;21.408;2023-06-26T02:30:49;100388.28;;;18.41;76.79
78313;BME280;67568;47.438;21.408;2023-06-26T02:33:15;100391.50;;;18.43;76.74
78313;BME280;67568;47.438;21.408;2023-06-26T02:35:42;100389.78;;;18.39;76.62
78313;BME280;67568;47.438;21.408;2023-06-26T02:38:09;100387.22;;;18.34;76.61
78313;BME280;67568;47.438;21.408;2023-06-26T02:40:36;100395.06;;;18.28;77.73
78313;BME280;67568;47.438;21.408;2023-06-26T02:43:03;100399.88;;;18.28;77.20
78313;BME280;67568;47.438;21.408;2023-06-26T02:45:30;100396.69;;;18.29;77.39
78313;BME280;67568;47.438;21.408;2023-06-26T02:47:56;100395.06;;;18.28;77.81
78313;BME280;67568;47.438;21.408;2023-06-26T02:50:23;100395.78;;;18.25;77.61
78313;BME280;67568;47.438;21.408;2023-06-26T02:52:50;100391.59;;;18.19;77.51
78313;BME280;67568;47.438;21.408;2023-06-26T02:55:17;100402.66;;;18.28;77.00
78313;BME280;67568;47.438;21.408;2023-06-26T02:57:46;100403.13;;;18.30;76.91
78313;BME280;67568;47.438;21.408;2023-06-26T03:00:13;100398.34;;;18.30;77.02
78313;BME280;67568;47.438;21.408;2023-06-26T03:02:40;100399.16;;;18.31;77.36
78313;BME280;67568;47.438;21.408;2023-06-26T03:05:07;100407.00;;;18.25;77.37
78313;BME280;67568;47.438;21.408;2023-06-26T03:07:34;100406.28;;;18.28;76.94
78313;BME280;67568;47.438;21.408;2023-06-26T03:10:00;100407.47;;;18.27;77.63
78313;BME280;67568;47.438;21.408;2023-06-26T03:12:27;100405.34;;;18.36;76.66
78313;BME280;67568;47.438;21.408;2023-06-26T03:14:54;100411.53;;;18.42;76.17
78313;BME280;67568;47.438;21.408;2023-06-26T03:17:21;100404.25;;;18.41;76.22
78313;BME280;67568;47.438;21.408;2023-06-26T03:19:47;100406.50;;;18.35;76.07
78313;BME280;67568;47.438;21.408;2023-06-26T03:22:14;100408.03;;;18.33;76.35
78313;BME280;67568;47.438;21.408;2023-06-26T03:24:41;100400.06;;;18.35;76.60
78313;BME280;67568;47.438;21.408;2023-06-26T03:27:08;100401.34;;;18.37;75.67
78313;BME280;67568;47.438;21.408;2023-06-26T03:29:34;100403.91;;;18.42;75.50
78313;BME280;67568;47.438;21.408;2023-06-26T03:32:01;100407.78;;;18.50;75.91
78313;BME280;67568;47.438;21.408;2023-06-26T03:34:28;100405.31;;;18.49;75.44
78313;BME280;67568;47.438;21.408;2023-06-26T03:36:55;100412.44;;;18.46;75.91
78313;BME280;67568;47.438;21.408;2023-06-26T03:39:21;100405.88;;;18.54;75.42
78313;BME280;67568;47.438;21.408;2023-06-26T03:41:48;100404.69;;;18.55;75.59
78313;BME280;67568;47.438;21.408;2023-06-26T03:44:15;100402.47;;;18.61;75.90
78313;BME280;67568;47.438;21.408;2023-06-26T03:46:42;100406.09;;;18.61;75.61
78313;BME280;67568;47.438;21.408;2023-06-26T03:49:08;100402.22;;;18.66;75.50
78313;BME280;67568;47.438;21.408;2023-06-26T03:51:36;100408.78;;;18.70;75.75
78313;BME280;67568;47.438;21.408;2023-06-26T03:54:03;100417.78;;;18.76;74.95
78313;BME280;67568;47.438;21.408;2023-06-26T03:56:30;100411.34;;;18.75;75.38
78313;BME280;67568;47.438;21.408;2023-06-26T03:58:57;100417.63;;;18.84;75.65
78313;BME280;67568;47.438;21.408;2023-06-26T04:01:23;100415.75;;;18.88;75.40
78313;BME280;67568;47.438;21.408;2023-06-26T04:03:50;100410.22;;;18.92;74.59
78313;BME280;67568;47.438;21.408;2023-06-26T04:06:17;100416.16;;;19.03;74.62
78313;BME280;67568;47.438;21.408;2023-06-26T04:08:44;100421.97;;;19.10;73.55
78313;BME280;67568;47.438;21.408;2023-06-26T04:11:11;100416.53;;;19.17;73.91
78313;BME280;67568;47.438;21.408;2023-06-26T04:13:37;100426.34;;;19.23;74.29
78313;BME280;67568;47.438;21.408;2023-06-26T04:16:04;100426.72;;;19.22;73.95
78313;BME280;67568;47.438;21.408;2023-06-26T04:18:31;100415.78;;;19.32;73.72
78313;BME280;67568;47.438;21.408;2023-06-26T04:21:12;100419.84;;;19.35;73.52
78313;BME280;67568;47.438;21.408;2023-06-26T04:23:40;100424.03;;;19.41;73.58
78313;BME280;67568;47.438;21.408;2023-06-26T04:26:07;100424.22;;;19.48;73.14
78313;BME280;67568;47.438;21.408;2023-06-26T04:28:35;100430.13;;;19.59;72.59
78313;BME280;67568;47.438;21.408;2023-06-26T04:31:02;100425.91;;;19.65;72.64
78313;BME280;67568;47.438;21.408;2023-06-26T04:33:29;100417.09;;;19.83;72.02
78313;BME280;67568;47.438;21.408;2023-06-26T04:35:56;100409.22;;;19.72;71.86
78313;BME280;67568;47.438;21.408;2023-06-26T04:38:22;100417.56;;;19.85;71.51
78313;BME280;67568;47.438;21.408;2023-06-26T04:40:49;100414.00;;;19.88;71.16
78313;BME280;67568;47.438;21.408;2023-06-26T04:43:16;100419.81;;;19.79;71.53
78313;BME280;67568;47.438;21.408;2023-06-26T04:45:42;100416.44;;;20.05;70.85
78313;BME280;67568;47.438;21.408;2023-06-26T04:48:09;100422.25;;;20.12;71.42
78313;BME280;67568;47.438;21.408;2023-06-26T04:50:36;100416.06;;;20.22;70.90
78313;BME280;67568;47.438;21.408;2023-06-26T04:53:03;100421.31;;;20.24;71.18
78313;BME280;67568;47.438;21.408;2023-06-26T04:55:30;100420.66;;;20.31;71.17
78313;BME280;67568;47.438;21.408;2023-06-26T04:57:57;100418.72;;;20.51;70.46
78313;BME280;67568;47.438;21.408;2023-06-26T05:00:23;100422.09;;;20.56;71.09
78313;BME280;67568;47.438;21.408;2023-06-26T05:02:51;100417.91;;;20.50;71.90
78313;BME280;67568;47.438;21.408;2023-06-26T05:05:18;100420.47;;;20.55;71.09
78313;BME280;67568;47.438;21.408;2023-06-26T05:07:47;100420.47;;;20.55;71.65
78313;BME280;67568;47.438;21.408;2023-06-26T05:10:15;100413.88;;;20.51;71.64
78313;BME280;67568;47.438;21.408;2023-06-26T05:12:41;100415.88;;;20.66;72.07
78313;BME280;67568;47.438;21.408;2023-06-26T05:15:08;100420.56;;;20.78;70.68
78313;BME280;67568;47.438;21.408;2023-06-26T05:17:35;100424.94;;;21.15;70.38
78313;BME280;67568;47.438;21.408;2023-06-26T05:20:02;100420.53;;;21.37;69.53
78313;BME280;67568;47.438;21.408;2023-06-26T05:22:29;100425.06;;;21.41;69.56
78313;BME280;67568;47.438;21.408;2023-06-26T05:24:58;100427.44;;;21.62;69.60
78313;BME280;67568;47.438;21.408;2023-06-26T05:27:26;100430.66;;;21.61;69.68
78313;BME280;67568;47.438;21.408;2023-06-26T05:29:53;100420.28;;;21.68;69.01
78313;BME280;67568;47.438;21.408;2023-06-26T05:32:20;100424.50;;;21.78;70.13
78313;BME280;67568;47.438;21.408;2023-06-26T05:34:48;100427.38;;;21.82;69.80
78313;BME280;67568;47.438;21.408;2023-06-26T05:37:20;100426.66;;;22.11;69.22
78313;BME280;67568;47.438;21.408;2023-06-26T05:39:47;100432.63;;;22.29;68.62
78313;BME280;67568;47.438;21.408;2023-06-26T05:42:15;100433.28;;;22.45;68.10
78313;BME280;67568;47.438;21.408;2023-06-26T05:44:41;100440.63;;;22.54;67.74
78313;BME280;67568;47.438;21.408;2023-06-26T05:47:08;100436.22;;;22.56;67.71
78313;BME280;67568;47.438;21.408;2023-06-26T05:49:35;100439.16;;;22.94;66.49
78313;BME280;67568;47.438;21.408;2023-06-26T05:52:02;100431.34;;;22.80;67.09
78313;BME280;67568;47.438;21.408;2023-06-26T05:54:29;100431.84;;;22.89;66.78
78313;BME280;67568;47.438;21.408;2023-06-26T05:56:57;100433.03;;;23.18;66.35
78313;BME280;67568;47.438;21.408;2023-06-26T05:59:24;100433.72;;;23.08;66.91
78313;BME280;67568;47.438;21.408;2023-06-26T06:01:51;100438.06;;;23.35;65.40
78313;BME280;67568;47.438;21.408;2023-06-26T06:04:18;100431.84;;;23.56;64.75
78313;BME280;67568;47.438;21.408;2023-06-26T06:06:44;100435.97;;;23.66;65.63
78313;BME280;67568;47.438;21.408;2023-06-26T06:09:11;100431.91;;;23.67;64.21
78313;BME280;67568;47.438;21.408;2023-06-26T06:11:38;100427.31;;;23.89;64.54
78313;BME280;67568;47.438;21.408;2023-06-26T06:14:05;100431.50;;;24.10;63.22
78313;BME280;67568;47.438;21.408;2023-06-26T06:16:32;100428.34;;;24.18;62.60
78313;BME280;67568;47.438;21.408;2023-06-26T06:18:58;100434.81;;;24.19;61.70
78313;BME280;67568;47.438;21.408;2023-06-26T06:21:25;100427.59;;;24.25;62.55
78313;BME280;67568;47.438;21.408;2023-06-26T06:23:52;100430.00;;;24.19;61.78
78313;BME280;67568;47.438;21.408;2023-06-26T06:26:18;100429.38;;;24.48;61.77
78313;BME280;67568;47.438;21.408;2023-06-26T06:28:45;100421.53;;;24.27;61.29
78313;BME280;67568;47.438;21.408;2023-06-26T06:31:12;100419.25;;;24.43;61.36
78313;BME280;67568;47.438;21.408;2023-06-26T06:33:39;100424.25;;;24.71;60.55
78313;BME280;67568;47.438;21.408;2023-06-26T06:36:06;100419.75;;;24.59;58.82
78313;BME280;67568;47.438;21.408;2023-06-26T06:38:32;100418.59;;;24.75;59.13
78313;BME280;67568;47.438;21.408;2023-06-26T06:41:00;100414.31;;;24.36;59.54
78313;BME280;67568;47.438;21.408;2023-06-26T06:43:26;100418.91;;;24.55;60.52
78313;BME280;67568;47.438;21.408;2023-06-26T06:45:53;100429.88;;;24.64;59.28
78313;BME280;67568;47.438;21.408;2023-06-26T06:48:20;100413.09;;;24.37;59.37
78313;BME280;67568;47.438;21.408;2023-06-26T06:50:46;100422.88;;;24.43;58.84
78313;BME280;67568;47.438;21.408;2023-06-26T06:53:13;100420.59;;;24.67;58.58
78313;BME280;67568;47.438;21.408;2023-06-26T06:55:40;100423.78;;;24.58;57.99
78313;BME280;67568;47.438;21.408;2023-06-26T06:58:07;100416.84;;;24.45;58.18
78313;BME280;67568;47.438;21.408;2023-06-26T07:00:33;100413.31;;;24.69;57.44
78313;BME280;67568;47.438;21.408;2023-06-26T07:03:00;100414.91;;;24.67;58.07
78313;BME280;67568;47.438;21.408;2023-06-26T07:05:27;100417.81;;;24.78;58.93
78313;BME280;67568;47.438;21.408;2023-06-26T07:07:54;100416.59;;;24.79;58.21
78313;BME280;67568;47.438;21.408;2023-06-26T07:10:21;100415.78;;;24.78;58.60
78313;BME280;67568;47.438;21.408;2023-06-26T07:12:48;100420.94;;;24.58;58.22
78313;BME280;67568;47.438;21.408;2023-06-26T07:15:17;100419.03;;;24.84;58.52
78313;BME280;67568;47.438;21.408;2023-06-26T07:17:44;100427.06;;;24.67;59.46
78313;BME280;67568;47.438;21.408;2023-06-26T07:20:11;100423.91;;;24.87;57.14
78313;BME280;67568;47.438;21.408;2023-06-26T07:22:39;100428.00;;;24.93;57.63
78313;BME280;67568;47.438;21.408;2023-06-26T07:25:06;100432.91;;;25.00;58.04
78313;BME280;67568;47.438;21.408;2023-06-26T07:27:33;100425.13;;;24.86;55.80
78313;BME280;67568;47.438;21.408;2023-06-26T07:30:00;100420.75;;;25.06;56.96
78313;BME280;67568;47.438;21.408;2023-06-26T07:32:27;100419.09;;;24.98;57.63
78313;BME280;67568;47.438;21.408;2023-06-26T07:34:53;100421.63;;;25.14;57.42
78313;BME280;67568;47.438;21.408;2023-06-26T07:37:20;100428.91;;;25.19;57.65
78313;BME280;67568;47.438;21.408;2023-06-26T07:39:48;100432.22;;;25.31;57.05
78313;BME280;67568;47.438;21.408;2023-06-26T07:42:15;100432.25;;;25.42;56.64
78313;BME280;67568;47.438;21.408;2023-06-26T07:44:42;100435.44;;;25.23;55.63
78313;BME280;67568;47.438;21.408;2023-06-26T07:47:09;100431.00;;;25.29;55.09
78313;BME280;67568;47.438;21.408;2023-06-26T07:49:36;100431.41;;;25.38;55.13
78313;BME280;67568;47.438;21.408;2023-06-26T07:52:03;100426.56;;;25.35;55.08
78313;BME280;67568;47.438;21.408;2023-06-26T07:54:30;100435.06;;;25.39;55.19
78313;BME280;67568;47.438;21.408;2023-06-26T07:57:02;100432.69;;;25.66;55.40
78313;BME280;67568;47.438;21.408;2023-06-26T07:59:29;100430.72;;;25.91;55.20
78313;BME280;67568;47.438;21.408;2023-06-26T08:01:57;100434.34;;;25.95;53.16
78313;BME280;67568;47.438;21.408;2023-06-26T08:04:26;100429.09;;;25.87;53.30
78313;BME280;67568;47.438;21.408;2023-06-26T08:06:55;100433.13;;;25.89;53.98
78313;BME280;67568;47.438;21.408;2023-06-26T08:09:25;100432.72;;;26.23;53.43
78313;BME280;67568;47.438;21.408;2023-06-26T08:11:53;100433.94;;;26.15;53.68
78313;BME280;67568;47.438;21.408;2023-06-26T08:14:20;100432.34;;;26.10;53.84
78313;BME280;67568;47.438;21.408;2023-06-26T08:16:47;100431.09;;;26.15;52.62
78313;BME280;67568;47.438;21.408;2023-06-26T08:19:14;100425.44;;;26.15;53.14
78313;BME280;67568;47.438;21.408;2023-06-26T08:21:43;100427.44;;;26.32;53.02
78313;BME280;67568;47.438;21.408;2023-06-26T08:24:10;100438.78;;;26.32;53.12
78313;BME280;67568;47.438;21.408;2023-06-26T08:26:37;100431.84;;;26.69;52.51
78313;BME280;67568;47.438;21.408;2023-06-26T08:29:04;100431.84;;;26.76;52.30
78313;BME280;67568;47.438;21.408;2023-06-26T08:31:30;100433.81;;;26.86;52.44
78313;BME280;67568;47.438;21.408;2023-06-26T08:33:57;100435.84;;;26.89;51.22
78313;BME280;67568;47.438;21.408;2023-06-26T08:36:24;100432.09;;;27.14;51.48
78313;BME280;67568;47.438;21.408;2023-06-26T08:38:51;100442.63;;;27.21;51.35
78313;BME280;67568;47.438;21.408;2023-06-26T08:41:17;100438.25;;;27.02;50.57
78313;BME280;67568;47.438;21.408;2023-06-26T08:43:47;100431.84;;;26.76;51.84
78313;BME280;67568;47.438;21.408;2023-06-26T08:46:14;100439.59;;;26.47;52.86
78313;BME280;67568;47.438;21.408;2023-06-26T08:51:33;100436.28;;;26.77;52.81
78313;BME280;67568;47.438;21.408;2023-06-26T08:54:07;100430.59;;;26.84;52.57
78313;BME280;67568;47.438;21.408;2023-06-26T08:56:40;100432.66;;;26.69;52.37
78313;BME280;67568;47.438;21.408;2023-06-26T08:59:12;100428.19;;;26.68;53.05
78313;BME280;67568;47.438;21.408;2023-06-26T09:01:40;100424.91;;;26.77;52.75
78313;BME280;67568;47.438;21.408;2023-06-26T09:04:10;100431.84;;;26.76;52.23
78313;BME280;67568;47.438;21.408;2023-06-26T09:06:37;100436.69;;;26.83;51.97
78313;BME280;67568;47.438;21.408;2023-06-26T09:09:07;100429.81;;;26.77;51.85
78313;BME280;67568;47.438;21.408;2023-06-26T09:11:34;100436.28;;;26.84;52.03
78313;BME280;67568;47.438;21.408;2023-06-26T09:14:03;100434.69;;;26.76;51.76
78313;BME280;67568;47.438;21.408;2023-06-26T09:16:30;100430.63;;;26.66;51.53
78313;BME280;67568;47.438;21.408;2023-06-26T09:18:57;100432.72;;;26.52;52.49
78313;BME280;67568;47.438;21.408;2023-06-26T09:21:25;100437.16;;;26.63;52.86
78313;BME280;67568;47.438;21.408;2023-06-26T09:23:52;100435.97;;;26.54;51.94
78313;BME280;67568;47.438;21.408;2023-06-26T09:26:21;100429.88;;;26.52;51.07
78313;BME280;67568;47.438;21.408;2023-06-26T09:28:48;100433.06;;;26.79;50.88
78313;BME280;67568;47.438;21.408;2023-06-26T09:31:16;100436.25;;;26.91;49.95
78313;BME280;67568;47.438;21.408;2023-06-26T09:34:03;100434.66;;;26.87;49.52
78313;BME280;67568;47.438;21.408;2023-06-26T09:36:31;100429.38;;;26.85;49.79
78313;BME280;67568;47.438;21.408;2023-06-26T09:39:02;100432.59;;;26.98;50.08
78313;BME280;67568;47.438;21.408;2023-06-26T09:41:29;100435.34;;;27.09;50.70
78313;BME280;67568;47.438;21.408;2023-06-26T09:44:01;100428.19;;;26.76;50.87
78313;BME280;67568;47.438;21.408;2023-06-26T09:46:29;100437.09;;;26.78;51.26
78313;BME280;67568;47.438;21.408;2023-06-26T09:49:03;100432.69;;;26.41;51.80
78313;BME280;67568;47.438;21.408;2023-06-26T09:51:34;100431.53;;;25.99;51.49
78313;BME280;67568;47.438;21.408;2023-06-26T09:54:02;100431.50;;;25.95;50.92
78313;BME280;67568;47.438;21.408;2023-06-26T09:56:29;100437.59;;;26.26;47.60
78313;BME280;67568;47.438;21.408;2023-06-26T09:58:58;100442.03;;;26.52;47.23
78313;BME280;67568;47.438;21.408;2023-06-26T10:01:25;100430.25;;;26.68;47.96
78313;BME280;67568;47.438;21.408;2023-06-26T10:03:56;100437.94;;;26.50;49.18
78313;BME280;67568;47.438;21.408;2023-06-26T10:06:36;100431.88;;;26.55;49.80
78313;BME280;67568;47.438;21.408;2023-06-26T10:09:05;100427.44;;;26.39;47.34
78313;BME280;67568;47.438;21.408;2023-06-26T10:11:47;100426.66;;;26.14;46.00
78313;BME280;67568;47.438;21.408;2023-06-26T10:14:16;100425.44;;;26.11;48.43
78313;BME280;67568;47.438;21.408;2023-06-26T10:16:45;100427.06;;;25.98;49.72
78313;BME280;67568;47.438;21.408;2023-06-26T10:19:13;100426.25;;;25.90;49.72
78313;BME280;67568;47.438;21.408;2023-06-26T10:21:41;100415.28;;;25.71;51.11
78313;BME280;67568;47.438;21.408;2023-06-26T10:24:10;100432.28;;;25.64;52.05
78313;BME280;67568;47.438;21.408;2023-06-26T10:26:44;100427.38;;;25.50;51.11
78313;BME280;67568;47.438;21.408;2023-06-26T10:29:13;100425.78;;;25.49;52.44
78313;BME280;67568;47.438;21.408;2023-06-26T10:31:44;100426.19;;;25.54;51.82
78313;BME280;67568;47.438;21.408;2023-06-26T10:34:13;100420.53;;;25.62;50.82
78313;BME280;67568;47.438;21.408;2023-06-26T10:36:40;100416.47;;;25.70;50.15
78313;BME280;67568;47.438;21.408;2023-06-26T10:39:07;100416.06;;;25.71;50.38
78313;BME280;67568;47.438;21.408;2023-06-26T10:41:41;100420.94;;;25.78;51.30
78313;BME280;67568;47.438;21.408;2023-06-26T10:44:40;100414.50;;;25.99;50.47
78313;BME280;67568;47.438;21.408;2023-06-26T10:47:07;100412.84;;;26.12;50.87
78313;BME280;67568;47.438;21.408;2023-06-26T10:49:35;100416.50;;;26.27;49.72
78313;BME280;67568;47.438;21.408;2023-06-26T10:52:03;100409.19;;;26.26;49.65
78313;BME280;67568;47.438;21.408;2023-06-26T10:54:31;100412.84;;;26.19;50.58
78313;BME280;67568;47.438;21.408;2023-06-26T10:56:58;100406.75;;;26.07;50.78
78313;BME280;67568;47.438;21.408;2023-06-26T10:59:27;100409.63;;;25.85;50.86
78313;BME280;67568;47.438;21.408;2023-06-26T11:01:56;100405.94;;;25.77;51.16
78313;BME280;67568;47.438;21.408;2023-06-26T11:04:43;100404.72;;;25.82;52.13
78313;BME280;67568;47.438;21.408;2023-06-26T11:07:24;100405.53;;;25.79;51.97
78313;BME280;67568;47.438;21.408;2023-06-26T11:10:02;100408.78;;;25.74;53.00
78313;BME280;67568;47.438;21.408;2023-06-26T11:12:40;100402.72;;;25.79;51.58
78313;BME280;67568;47.438;21.408;2023-06-26T11:15:12;100403.50;;;25.69;52.52
78313;BME280;67568;47.438;21.408;2023-06-26T11:17:39;100401.47;;;25.69;52.16
78313;BME280;67568;47.438;21.408;2023-06-26T11:20:08;100406.34;;;25.76;51.89
78313;BME280;67568;47.438;21.408;2023-06-26T11:22:37;100399.06;;;25.82;51.43
78313;BME280;67568;47.438;21.408;2023-06-26T11:25:05;100404.72;;;25.78;51.51
78313;BME280;67568;47.438;21.408;2023-06-26T11:27:37;100409.19;;;25.76;51.93
78313;BME280;67568;47.438;21.408;2023-06-26T11:30:11;100404.72;;;25.61;51.64
78313;BME280;67568;47.438;21.408;2023-06-26T11:32:48;100406.34;;;25.62;52.65
78313;BME280;67568;47.438;21.408;2023-06-26T11:35:25;100401.47;;;25.80;51.96
78313;BME280;67568;47.438;21.408;2023-06-26T11:37:55;100394.59;;;25.95;51.28
78313;BME280;67568;47.438;21.408;2023-06-26T11:40:22;100396.22;;;26.25;50.05
78313;BME280;67568;47.438;21.408;2023-06-26T11:42:49;100407.53;;;26.43;48.66
78313;BME280;67568;47.438;21.408;2023-06-26T11:45:16;100407.13;;;26.59;48.48
78313;BME280;67568;47.438;21.408;2023-06-26T11:47:43;100404.63;;;26.75;48.59
78313;BME280;67568;47.438;21.408;2023-06-26T11:50:15;100399.41;;;26.48;49.96
78313;BME280;67568;47.438;21.408;2023-06-26T11:52:42;100403.50;;;26.15;49.71
78313;BME280;67568;47.438;21.408;2023-06-26T11:55:09;100401.91;;;26.03;50.65
78313;BME280;67568;47.438;21.408;2023-06-26T11:57:37;100396.66;;;25.91;50.89
78313;BME280;67568;47.438;21.408;2023-06-26T12:00:11;100389.75;;;25.92;51.24
78313;BME280;67568;47.438;21.408;2023-06-26T12:02:38;100388.94;;;25.92;51.32
78313;BME280;67568;47.438;21.408;2023-06-26T12:05:06;100401.91;;;26.07;51.56
78313;BME280;67568;47.438;21.408;2023-06-26T12:07:34;100394.16;;;26.36;50.56
78313;BME280;67568;47.438;21.408;2023-06-26T12:10:01;100395.75;;;26.52;49.42
78313;BME280;67568;47.438;21.408;2023-06-26T12:12:28;100391.69;;;26.60;48.81
78313;BME280;67568;47.438;21.408;2023-06-26T12:14:58;100392.06;;;26.73;48.79
78313;BME280;67568;47.438;21.408;2023-06-26T12:17:25;100395.66;;;26.87;48.50
78313;BME280;67568;47.438;21.408;2023-06-26T12:19:52;100390.72;;;26.95;48.51
78313;BME280;67568;47.438;21.408;2023-06-26T12:22:19;100396.44;;;26.88;48.84
78313;BME280;67568;47.438;21.408;2023-06-26T12:24:48;100395.66;;;26.80;46.93
78313;BME280;67568;47.438;21.408;2023-06-26T12:27:17;100384.34;;;26.73;47.40
78313;BME280;67568;47.438;21.408;2023-06-26T12:29:54;100388.03;;;26.48;46.82
78313;BME280;67568;47.438;21.408;2023-06-26T12:32:24;100389.28;;;26.51;47.12
78313;BME280;67568;47.438;21.408;2023-06-26T12:34:56;100392.44;;;26.78;47.96
78313;BME280;67568;47.438;21.408;2023-06-26T12:37:23;100388.72;;;26.88;45.56
78313;BME280;67568;47.438;21.408;2023-06-26T12:39:56;100384.25;;;26.91;45.65
78313;BME280;67568;47.438;21.408;2023-06-26T12:42:25;100383.78;;;27.00;45.71
78313;BME280;67568;47.438;21.408;2023-06-26T12:44:54;100389.84;;;27.16;45.57
78313;BME280;67568;47.438;21.408;2023-06-26T12:47:28;100378.84;;;27.22;44.68
78313;BME280;67568;47.438;21.408;2023-06-26T12:49:56;100382.53;;;27.19;45.89